This is the latest recevied weather packets stored in our database for station/object SP7WMI-13. If no packets are shown the sender has not sent any weather packets the latest 10 day(s).
| Time | Temp. | Humidity | Pressure | Rain* | Wind** | Luminosity | Snow |
|---|---|---|---|---|---|---|---|
| 1777369971 | 8.89° C | 42% | 1023.8 hPa | 0 mm | - | - | - |
| 1777322477 | 9.44° C | 46% | 1019.9 hPa | 0 mm | - | - | - |
| 1777321574 | 9.44° C | 46% | 1019.7 hPa | 0 mm | - | - | - |
| 1777320671 | 10° C | 48% | 1019.7 hPa | 0 mm | - | - | - |
| 1777319768 | 10.56° C | 48% | 1019.4 hPa | 0 mm | - | - | - |
| 1777315253 | 11.67° C | 45% | 1019.4 hPa | 0 mm | - | - | - |
| 1777314350 | 11.67° C | 44% | 1019.3 hPa | 0 mm | - | - | - |
| 1777313447 | 11.67° C | 43% | 1019.1 hPa | 0 mm | - | - | - |
| 1777312544 | 12.22° C | 42% | 1019 hPa | 0 mm | - | - | - |
| 1777311641 | 12.22° C | 41% | 1019 hPa | 0 mm | - | - | - |
| 1777310738 | 12.78° C | 41% | 1019.1 hPa | 0 mm | - | - | - |
| 1777309835 | 12.22° C | 40% | 1019.1 hPa | 0 mm | - | - | - |
| 1777308932 | 12.78° C | 39% | 1019.1 hPa | 0 mm | - | - | - |
| 1777308029 | 13.33° C | 38% | 1019.1 hPa | 0 mm | - | - | - |
| 1777307126 | 13.89° C | 36% | 1019 hPa | 0 mm | - | - | - |
| 1777306223 | 12.78° C | 38% | 1018.9 hPa | 0 mm | - | - | - |
| 1777305320 | 12.78° C | 37% | 1019.1 hPa | 0 mm | - | - | - |
| 1777304417 | 13.33° C | 37% | 1019.2 hPa | 0 mm | - | - | - |
| 1777303514 | 12.78° C | 37% | 1019.3 hPa | 0 mm | - | - | - |
| 1777302611 | 12.78° C | 37% | 1019.3 hPa | 0 mm | - | - | - |
| 1777301708 | 12.78° C | 37% | 1019.4 hPa | 0 mm | - | - | - |
| 1777300805 | 12.78° C | 38% | 1019.5 hPa | 0 mm | - | - | - |
| 1777299902 | 12.78° C | 38% | 1019.6 hPa | 0 mm | - | - | - |
| 1777298999 | 12.78° C | 39% | 1019.7 hPa | 0 mm | - | - | - |
| 1777298096 | 12.78° C | 38% | 1019.8 hPa | 0 mm | - | - | - |
* Rain since midnight (hover to see other rain measurements)
** Current wind speed in m/s (hover to see current wind gust speed)